sensor_id;sensor_type;location;lat;lon;timestamp;pressure;altitude;pressure_sealevel;temperature;humidity
20444;BME280;10381;53.730;10.010;2023-02-24T00:03:55;100703.78;;;2.56;100.00
20444;BME280;10381;53.730;10.010;2023-02-24T00:07:59;100702.88;;;2.58;100.00
20444;BME280;10381;53.730;10.010;2023-02-24T00:16:01;100699.13;;;2.62;100.00
20444;BME280;10381;53.730;10.010;2023-02-24T00:20:01;100688.84;;;2.59;100.00
20444;BME280;10381;53.730;10.010;2023-02-24T00:24:05;100680.94;;;2.60;100.00
20444;BME280;10381;53.730;10.010;2023-02-24T00:28:05;100685.28;;;2.60;100.00
20444;BME280;10381;53.730;10.010;2023-02-24T00:32:07;100681.94;;;2.58;100.00
20444;BME280;10381;53.730;10.010;2023-02-24T00:36:14;100667.94;;;2.59;100.00
20444;BME280;10381;53.730;10.010;2023-02-24T00:40:14;100670.81;;;2.54;100.00
20444;BME280;10381;53.730;10.010;2023-02-24T00:44:15;100661.69;;;2.61;100.00
20444;BME280;10381;53.730;10.010;2023-02-24T00:48:15;100646.94;;;2.60;100.00
20444;BME280;10381;53.730;10.010;2023-02-24T00:52:18;100641.69;;;2.60;100.00
20444;BME280;10381;53.730;10.010;2023-02-24T00:56:19;100637.88;;;2.66;100.00
20444;BME280;10381;53.730;10.010;2023-02-24T01:00:20;100629.84;;;2.69;100.00
20444;BME280;10381;53.730;10.010;2023-02-24T01:04:21;100618.81;;;2.64;100.00
20444;BME280;10381;53.730;10.010;2023-02-24T01:08:21;100612.06;;;2.60;100.00
20444;BME280;10381;53.730;10.010;2023-02-24T01:12:22;100592.16;;;2.57;100.00
20444;BME280;10381;53.730;10.010;2023-02-24T01:17:01;100587.19;;;2.52;100.00
20444;BME280;10381;53.730;10.010;2023-02-24T01:21:01;100584.13;;;2.46;100.00
20444;BME280;10381;53.730;10.010;2023-02-24T01:25:01;100584.38;;;2.41;100.00
20444;BME280;10381;53.730;10.010;2023-02-24T01:29:02;100578.56;;;2.36;100.00
20444;BME280;10381;53.730;10.010;2023-02-24T01:33:09;100580.19;;;2.39;100.00
20444;BME280;10381;53.730;10.010;2023-02-24T01:37:13;100572.91;;;2.44;100.00
20444;BME280;10381;53.730;10.010;2023-02-24T01:41:21;100560.31;;;2.50;100.00
20444;BME280;10381;53.730;10.010;2023-02-24T01:45:25;100555.94;;;2.51;100.00
20444;BME280;10381;53.730;10.010;2023-02-24T01:49:40;100547.06;;;2.53;100.00
20444;BME280;10381;53.730;10.010;2023-02-24T01:53:41;100543.59;;;2.53;100.00
20444;BME280;10381;53.730;10.010;2023-02-24T01:57:42;100534.81;;;2.54;100.00
20444;BME280;10381;53.730;10.010;2023-02-24T02:01:45;100529.66;;;2.52;100.00
20444;BME280;10381;53.730;10.010;2023-02-24T02:05:47;100524.53;;;2.51;100.00
20444;BME280;10381;53.730;10.010;2023-02-24T02:09:49;100515.09;;;2.48;100.00
20444;BME280;10381;53.730;10.010;2023-02-24T02:13:52;100511.56;;;2.49;100.00
20444;BME280;10381;53.730;10.010;2023-02-24T02:18:11;100512.38;;;2.50;100.00
20444;BME280;10381;53.730;10.010;2023-02-24T02:26:49;100489.72;;;2.50;100.00
20444;BME280;10381;53.730;10.010;2023-02-24T02:31:11;100483.34;;;2.54;100.00
20444;BME280;10381;53.730;10.010;2023-02-24T02:35:23;100480.94;;;2.51;100.00
20444;BME280;10381;53.730;10.010;2023-02-24T02:39:39;100481.00;;;2.50;100.00
20444;BME280;10381;53.730;10.010;2023-02-24T02:43:51;100460.09;;;2.50;100.00
20444;BME280;10381;53.730;10.010;2023-02-24T02:48:06;100460.00;;;2.51;100.00
20444;BME280;10381;53.730;10.010;2023-02-24T02:52:19;100458.41;;;2.49;100.00
20444;BME280;10381;53.730;10.010;2023-02-24T02:56:34;100445.34;;;2.49;100.00
20444;BME280;10381;53.730;10.010;2023-02-24T03:00:43;100444.59;;;2.47;100.00
20444;BME280;10381;53.730;10.010;2023-02-24T03:04:59;100434.13;;;2.47;100.00
20444;BME280;10381;53.730;10.010;2023-02-24T03:09:04;100433.50;;;2.43;100.00
20444;BME280;10381;53.730;10.010;2023-02-24T03:13:11;100416.56;;;2.34;100.00
20444;BME280;10381;53.730;10.010;2023-02-24T03:17:18;100410.69;;;2.31;100.00
20444;BME280;10381;53.730;10.010;2023-02-24T03:21:28;100403.69;;;2.31;100.00
20444;BME280;10381;53.730;10.010;2023-02-24T03:25:41;100394.06;;;2.32;100.00
20444;BME280;10381;53.730;10.010;2023-02-24T03:29:49;100386.97;;;2.34;100.00
20444;BME280;10381;53.730;10.010;2023-02-24T03:33:58;100371.28;;;2.34;100.00
20444;BME280;10381;53.730;10.010;2023-02-24T03:38:00;100365.03;;;2.37;100.00
20444;BME280;10381;53.730;10.010;2023-02-24T03:42:17;100362.44;;;2.37;100.00
20444;BME280;10381;53.730;10.010;2023-02-24T03:46:18;100347.78;;;2.34;100.00
20444;BME280;10381;53.730;10.010;2023-02-24T03:50:20;100337.50;;;2.31;100.00
20444;BME280;10381;53.730;10.010;2023-02-24T04:03:05;100316.41;;;2.34;100.00
20444;BME280;10381;53.730;10.010;2023-02-24T04:07:14;100305.00;;;2.35;100.00
20444;BME280;10381;53.730;10.010;2023-02-24T04:11:30;100296.25;;;2.36;100.00
20444;BME280;10381;53.730;10.010;2023-02-24T04:15:42;100282.41;;;2.34;100.00
20444;BME280;10381;53.730;10.010;2023-02-24T04:19:48;100264.88;;;2.36;100.00
20444;BME280;10381;53.730;10.010;2023-02-24T04:23:50;100262.13;;;2.38;100.00
20444;BME280;10381;53.730;10.010;2023-02-24T04:27:53;100249.91;;;2.38;100.00
20444;BME280;10381;53.730;10.010;2023-02-24T04:31:59;100241.22;;;2.38;100.00
20444;BME280;10381;53.730;10.010;2023-02-24T04:36:01;100232.53;;;2.37;100.00
20444;BME280;10381;53.730;10.010;2023-02-24T04:40:02;100230.75;;;2.38;100.00
20444;BME280;10381;53.730;10.010;2023-02-24T04:44:09;100220.31;;;2.38;100.00
20444;BME280;10381;53.730;10.010;2023-02-24T04:48:10;100202.13;;;2.36;100.00
20444;BME280;10381;53.730;10.010;2023-02-24T04:52:13;100197.72;;;2.37;100.00
20444;BME280;10381;53.730;10.010;2023-02-24T04:56:14;100178.69;;;2.34;100.00
20444;BME280;10381;53.730;10.010;2023-02-24T05:00:15;100171.13;;;2.30;100.00
20444;BME280;10381;53.730;10.010;2023-02-24T05:04:34;100172.25;;;2.26;100.00
20444;BME280;10381;53.730;10.010;2023-02-24T05:08:37;100158.75;;;2.19;100.00
20444;BME280;10381;53.730;10.010;2023-02-24T05:12:38;100146.41;;;2.21;100.00
20444;BME280;10381;53.730;10.010;2023-02-24T05:16:43;100141.84;;;2.25;100.00
20444;BME280;10381;53.730;10.010;2023-02-24T05:20:46;100127.94;;;2.24;100.00
20444;BME280;10381;53.730;10.010;2023-02-24T05:25:05;100128.69;;;2.26;100.00
20444;BME280;10381;53.730;10.010;2023-02-24T05:29:07;100113.09;;;2.25;100.00
20444;BME280;10381;53.730;10.010;2023-02-24T05:33:11;100113.72;;;2.28;100.00
20444;BME280;10381;53.730;10.010;2023-02-24T05:37:24;100103.38;;;2.27;100.00
20444;BME280;10381;53.730;10.010;2023-02-24T05:41:26;100090.69;;;2.21;100.00
20444;BME280;10381;53.730;10.010;2023-02-24T05:45:34;100080.59;;;2.29;100.00
20444;BME280;10381;53.730;10.010;2023-02-24T05:49:35;100081.66;;;2.26;100.00
20444;BME280;10381;53.730;10.010;2023-02-24T05:53:38;100073.34;;;2.20;100.00
20444;BME280;10381;53.730;10.010;2023-02-24T05:57:41;100078.63;;;2.05;100.00
20444;BME280;10381;53.730;10.010;2023-02-24T06:01:43;100073.25;;;1.94;100.00
20444;BME280;10381;53.730;10.010;2023-02-24T06:05:52;100075.16;;;1.78;100.00
20444;BME280;10381;53.730;10.010;2023-02-24T06:09:55;100075.94;;;1.65;100.00
20444;BME280;10381;53.730;10.010;2023-02-24T06:13:56;100066.63;;;1.61;100.00
20444;BME280;10381;53.730;10.010;2023-02-24T06:17:57;100076.34;;;1.45;100.00
20444;BME280;10381;53.730;10.010;2023-02-24T06:22:00;100065.72;;;1.34;100.00
20444;BME280;10381;53.730;10.010;2023-02-24T06:26:04;100075.41;;;1.32;100.00
20444;BME280;10381;53.730;10.010;2023-02-24T06:30:05;100070.38;;;1.28;100.00
20444;BME280;10381;53.730;10.010;2023-02-24T06:34:10;100075.88;;;1.24;100.00
20444;BME280;10381;53.730;10.010;2023-02-24T06:38:12;100062.91;;;1.22;100.00
20444;BME280;10381;53.730;10.010;2023-02-24T06:42:14;100058.28;;;1.27;100.00
20444;BME280;10381;53.730;10.010;2023-02-24T06:46:14;100061.72;;;1.28;100.00
20444;BME280;10381;53.730;10.010;2023-02-24T06:50:16;100060.91;;;1.27;100.00
20444;BME280;10381;53.730;10.010;2023-02-24T06:54:23;100051.16;;;1.30;100.00
20444;BME280;10381;53.730;10.010;2023-02-24T06:58:24;100042.50;;;1.29;100.00
20444;BME280;10381;53.730;10.010;2023-02-24T07:02:25;100033.94;;;1.27;100.00
20444;BME280;10381;53.730;10.010;2023-02-24T07:06:35;100027.13;;;1.24;100.00
20444;BME280;10381;53.730;10.010;2023-02-24T07:10:37;100015.94;;;1.22;100.00
20444;BME280;10381;53.730;10.010;2023-02-24T07:14:38;100014.09;;;1.24;100.00
20444;BME280;10381;53.730;10.010;2023-02-24T07:18:39;100002.81;;;1.24;100.00
20444;BME280;10381;53.730;10.010;2023-02-24T07:22:39;100008.25;;;1.21;100.00
20444;BME280;10381;53.730;10.010;2023-02-24T07:26:41;100002.34;;;1.17;100.00
20444;BME280;10381;53.730;10.010;2023-02-24T07:30:41;99991.47;;;1.11;100.00
20444;BME280;10381;53.730;10.010;2023-02-24T07:34:41;99985.41;;;1.10;100.00
20444;BME280;10381;53.730;10.010;2023-02-24T07:38:42;99992.97;;;1.00;100.00
20444;BME280;10381;53.730;10.010;2023-02-24T07:42:43;99973.13;;;0.98;100.00
20444;BME280;10381;53.730;10.010;2023-02-24T07:46:46;99967.00;;;0.84;100.00
20444;BME280;10381;53.730;10.010;2023-02-24T07:50:48;99967.63;;;0.88;100.00
20444;BME280;10381;53.730;10.010;2023-02-24T07:54:58;99950.22;;;0.89;100.00
20444;BME280;10381;53.730;10.010;2023-02-24T07:59:23;99947.81;;;0.85;100.00
20444;BME280;10381;53.730;10.010;2023-02-24T08:03:26;99933.94;;;0.85;100.00
20444;BME280;10381;53.730;10.010;2023-02-24T08:07:26;99920.06;;;0.84;100.00
20444;BME280;10381;53.730;10.010;2023-02-24T08:11:30;99913.69;;;0.89;100.00
20444;BME280;10381;53.730;10.010;2023-02-24T08:15:34;99913.06;;;0.85;100.00
20444;BME280;10381;53.730;10.010;2023-02-24T08:19:34;99909.16;;;0.92;100.00
20444;BME280;10381;53.730;10.010;2023-02-24T08:23:41;99902.34;;;0.90;100.00
20444;BME280;10381;53.730;10.010;2023-02-24T08:27:46;99895.09;;;0.95;100.00
20444;BME280;10381;53.730;10.010;2023-02-24T08:31:54;99874.56;;;1.03;100.00
20444;BME280;10381;53.730;10.010;2023-02-24T08:35:55;99873.72;;;1.02;100.00
20444;BME280;10381;53.730;10.010;2023-02-24T08:40:00;99858.63;;;1.08;100.00
20444;BME280;10381;53.730;10.010;2023-02-24T08:44:04;99854.81;;;1.13;100.00
20444;BME280;10381;53.730;10.010;2023-02-24T08:48:05;99845.00;;;1.17;100.00
20444;BME280;10381;53.730;10.010;2023-02-24T08:52:17;99838.94;;;1.16;100.00
20444;BME280;10381;53.730;10.010;2023-02-24T08:56:26;99831.41;;;1.12;100.00
20444;BME280;10381;53.730;10.010;2023-02-24T09:00:28;99830.91;;;1.19;100.00
20444;BME280;10381;53.730;10.010;2023-02-24T09:08:55;99810.44;;;1.13;100.00
20444;BME280;10381;53.730;10.010;2023-02-24T09:13:15;99803.25;;;1.17;100.00
20444;BME280;10381;53.730;10.010;2023-02-24T09:17:16;99803.34;;;1.15;100.00
20444;BME280;10381;53.730;10.010;2023-02-24T09:21:19;99808.25;;;1.20;100.00
20444;BME280;10381;53.730;10.010;2023-02-24T09:25:39;99786.78;;;1.29;100.00
20444;BME280;10381;53.730;10.010;2023-02-24T09:29:39;99789.94;;;1.34;100.00
20444;BME280;10381;53.730;10.010;2023-02-24T09:33:48;99784.41;;;1.39;100.00
20444;BME280;10381;53.730;10.010;2023-02-24T09:37:52;99769.41;;;1.42;100.00
20444;BME280;10381;53.730;10.010;2023-02-24T09:41:57;99765.84;;;1.43;100.00
20444;BME280;10381;53.730;10.010;2023-02-24T09:46:23;99761.03;;;1.50;100.00
20444;BME280;10381;53.730;10.010;2023-02-24T09:50:31;99756.34;;;1.55;100.00
20444;BME280;10381;53.730;10.010;2023-02-24T09:55:00;99747.91;;;1.52;100.00
20444;BME280;10381;53.730;10.010;2023-02-24T09:59:29;99732.44;;;1.61;100.00
20444;BME280;10381;53.730;10.010;2023-02-24T10:03:40;99738.59;;;1.73;100.00
20444;BME280;10381;53.730;10.010;2023-02-24T10:07:47;99733.78;;;1.80;100.00
20444;BME280;10381;53.730;10.010;2023-02-24T10:11:59;99728.16;;;1.86;100.00
20444;BME280;10381;53.730;10.010;2023-02-24T10:16:08;99721.47;;;1.82;100.00
20444;BME280;10381;53.730;10.010;2023-02-24T10:20:16;99711.84;;;1.95;100.00
20444;BME280;10381;53.730;10.010;2023-02-24T10:24:40;99697.19;;;2.05;100.00
20444;BME280;10381;53.730;10.010;2023-02-24T10:28:54;99691.31;;;2.15;100.00
20444;BME280;10381;53.730;10.010;2023-02-24T10:32:59;99679.72;;;2.06;100.00
20444;BME280;10381;53.730;10.010;2023-02-24T10:37:11;99674.78;;;2.14;100.00
20444;BME280;10381;53.730;10.010;2023-02-24T10:41:13;99667.69;;;2.16;100.00
20444;BME280;10381;53.730;10.010;2023-02-24T10:45:25;99646.78;;;2.16;100.00
20444;BME280;10381;53.730;10.010;2023-02-24T10:49:25;99642.56;;;2.26;100.00
20444;BME280;10381;53.730;10.010;2023-02-24T10:53:26;99642.00;;;2.34;100.00
20444;BME280;10381;53.730;10.010;2023-02-24T10:57:44;99635.50;;;2.40;100.00
20444;BME280;10381;53.730;10.010;2023-02-24T11:02:21;99625.25;;;2.61;100.00
20444;BME280;10381;53.730;10.010;2023-02-24T11:06:48;99609.91;;;2.91;100.00
20444;BME280;10381;53.730;10.010;2023-02-24T11:10:51;99605.84;;;2.87;100.00
20444;BME280;10381;53.730;10.010;2023-02-24T11:14:54;99592.56;;;3.02;100.00
20444;BME280;10381;53.730;10.010;2023-02-24T11:19:14;99579.22;;;3.05;100.00
20444;BME280;10381;53.730;10.010;2023-02-24T11:23:21;99574.97;;;3.04;100.00
20444;BME280;10381;53.730;10.010;2023-02-24T11:27:23;99576.50;;;3.06;100.00
20444;BME280;10381;53.730;10.010;2023-02-24T11:35:54;99561.16;;;3.24;100.00
20444;BME280;10381;53.730;10.010;2023-02-24T11:40:00;99546.88;;;3.28;100.00
20444;BME280;10381;53.730;10.010;2023-02-24T11:44:09;99546.28;;;3.36;100.00
20444;BME280;10381;53.730;10.010;2023-02-24T11:48:31;99540.69;;;3.40;100.00
20444;BME280;10381;53.730;10.010;2023-02-24T11:52:37;99529.25;;;3.41;100.00
20444;BME280;10381;53.730;10.010;2023-02-24T11:56:45;99516.41;;;3.61;100.00
20444;BME280;10381;53.730;10.010;2023-02-24T12:01:28;99511.94;;;3.73;100.00
20444;BME280;10381;53.730;10.010;2023-02-24T12:10:28;99510.81;;;3.87;100.00
20444;BME280;10381;53.730;10.010;2023-02-24T12:14:37;99501.25;;;3.97;100.00
20444;BME280;10381;53.730;10.010;2023-02-24T12:19:09;99508.00;;;4.11;100.00
20444;BME280;10381;53.730;10.010;2023-02-24T12:23:34;99496.97;;;3.96;100.00
20444;BME280;10381;53.730;10.010;2023-02-24T12:28:24;99507.75;;;3.81;100.00
20444;BME280;10381;53.730;10.010;2023-02-24T12:32:18;99487.63;;;3.82;100.00
20444;BME280;10381;53.730;10.010;2023-02-24T12:36:36;99479.94;;;3.69;100.00
20444;BME280;10381;53.730;10.010;2023-02-24T12:40:57;99461.84;;;3.66;100.00
20444;BME280;10381;53.730;10.010;2023-02-24T12:45:20;99457.44;;;3.67;100.00
20444;BME280;10381;53.730;10.010;2023-02-24T12:49:26;99451.22;;;3.68;100.00
20444;BME280;10381;53.730;10.010;2023-02-24T12:53:50;99452.25;;;3.88;100.00
20444;BME280;10381;53.730;10.010;2023-02-24T12:58:08;99448.25;;;4.04;100.00
20444;BME280;10381;53.730;10.010;2023-02-24T13:02:20;99434.03;;;4.49;100.00
20444;BME280;10381;53.730;10.010;2023-02-24T13:06:36;99429.13;;;4.65;100.00
20444;BME280;10381;53.730;10.010;2023-02-24T13:15:06;99403.66;;;4.77;100.00
20444;BME280;10381;53.730;10.010;2023-02-24T13:19:28;99398.34;;;4.98;100.00
20444;BME280;10381;53.730;10.010;2023-02-24T13:23:28;99401.38;;;5.03;100.00
20444;BME280;10381;53.730;10.010;2023-02-24T13:27:34;99401.91;;;4.97;100.00
20444;BME280;10381;53.730;10.010;2023-02-24T13:31:46;99392.53;;;5.04;100.00
20444;BME280;10381;53.730;10.010;2023-02-24T13:35:51;99407.75;;;5.10;100.00
20444;BME280;10381;53.730;10.010;2023-02-24T13:39:51;99394.84;;;4.88;100.00
20444;BME280;10381;53.730;10.010;2023-02-24T13:44:23;99388.69;;;4.68;100.00
20444;BME280;10381;53.730;10.010;2023-02-24T13:48:44;99378.25;;;4.87;100.00
20444;BME280;10381;53.730;10.010;2023-02-24T13:53:16;99362.69;;;4.86;100.00
20444;BME280;10381;53.730;10.010;2023-02-24T13:57:41;99363.56;;;5.35;100.00
20444;BME280;10381;53.730;10.010;2023-02-24T14:01:47;99344.66;;;5.41;100.00
20444;BME280;10381;53.730;10.010;2023-02-24T14:05:48;99335.09;;;5.40;100.00
20444;BME280;10381;53.730;10.010;2023-02-24T14:09:57;99323.38;;;5.34;100.00
20444;BME280;10381;53.730;10.010;2023-02-24T14:13:58;99316.84;;;5.39;100.00
20444;BME280;10381;53.730;10.010;2023-02-24T14:18:02;99310.75;;;5.38;100.00
20444;BME280;10381;53.730;10.010;2023-02-24T14:22:03;99307.44;;;5.36;100.00
20444;BME280;10381;53.730;10.010;2023-02-24T14:26:07;99299.72;;;5.44;100.00
20444;BME280;10381;53.730;10.010;2023-02-24T14:30:38;99282.03;;;5.46;100.00
20444;BME280;10381;53.730;10.010;2023-02-24T14:34:39;99268.59;;;5.49;100.00
20444;BME280;10381;53.730;10.010;2023-02-24T14:38:40;99249.53;;;5.47;100.00
20444;BME280;10381;53.730;10.010;2023-02-24T14:42:48;99235.88;;;5.34;100.00
20444;BME280;10381;53.730;10.010;2023-02-24T14:46:51;99247.91;;;5.27;100.00
20444;BME280;10381;53.730;10.010;2023-02-24T14:50:55;99246.66;;;5.02;100.00
20444;BME280;10381;53.730;10.010;2023-02-24T14:55:02;99238.06;;;4.90;100.00
20444;BME280;10381;53.730;10.010;2023-02-24T14:59:07;99266.53;;;4.85;100.00
20444;BME280;10381;53.730;10.010;2023-02-24T15:03:38;99241.97;;;4.86;100.00
20444;BME280;10381;53.730;10.010;2023-02-24T15:07:43;99245.81;;;4.91;100.00
20444;BME280;10381;53.730;10.010;2023-02-24T15:11:44;99247.47;;;5.12;100.00
20444;BME280;10381;53.730;10.010;2023-02-24T15:15:44;99239.19;;;5.17;100.00
20444;BME280;10381;53.730;10.010;2023-02-24T15:19:45;99241.41;;;5.11;100.00
20444;BME280;10381;53.730;10.010;2023-02-24T15:23:48;99232.16;;;5.17;100.00
20444;BME280;10381;53.730;10.010;2023-02-24T15:28:00;99219.56;;;5.21;100.00
20444;BME280;10381;53.730;10.010;2023-02-24T15:32:02;99217.09;;;5.09;100.00
20444;BME280;10381;53.730;10.010;2023-02-24T15:36:18;99218.19;;;4.97;100.00
20444;BME280;10381;53.730;10.010;2023-02-24T15:40:24;99218.59;;;4.93;100.00
20444;BME280;10381;53.730;10.010;2023-02-24T15:44:29;99213.94;;;4.86;100.00
20444;BME280;10381;53.730;10.010;2023-02-24T15:48:30;99213.50;;;4.72;100.00
20444;BME280;10381;53.730;10.010;2023-02-24T15:52:30;99212.66;;;4.61;100.00
20444;BME280;10381;53.730;10.010;2023-02-24T15:56:32;99211.28;;;4.67;100.00
20444;BME280;10381;53.730;10.010;2023-02-24T16:00:34;99213.34;;;4.73;100.00
20444;BME280;10381;53.730;10.010;2023-02-24T16:04:34;99210.59;;;4.75;100.00
20444;BME280;10381;53.730;10.010;2023-02-24T16:08:34;99198.03;;;4.78;100.00
20444;BME280;10381;53.730;10.010;2023-02-24T16:12:49;99202.84;;;4.73;100.00
20444;BME280;10381;53.730;10.010;2023-02-24T16:16:49;99197.19;;;4.68;100.00
20444;BME280;10381;53.730;10.010;2023-02-24T16:20:50;99194.97;;;4.73;100.00
20444;BME280;10381;53.730;10.010;2023-02-24T16:24:53;99185.88;;;4.77;100.00
20444;BME280;10381;53.730;10.010;2023-02-24T16:28:55;99190.16;;;4.78;100.00
20444;BME280;10381;53.730;10.010;2023-02-24T16:32:57;99179.94;;;4.75;100.00
20444;BME280;10381;53.730;10.010;2023-02-24T16:36:57;99188.38;;;4.69;100.00
20444;BME280;10381;53.730;10.010;2023-02-24T16:40:57;99181.31;;;4.50;100.00
20444;BME280;10381;53.730;10.010;2023-02-24T16:44:58;99188.06;;;4.43;100.00
20444;BME280;10381;53.730;10.010;2023-02-24T16:48:58;99208.72;;;4.26;100.00
20444;BME280;10381;53.730;10.010;2023-02-24T16:52:59;99210.19;;;4.10;100.00
20444;BME280;10381;53.730;10.010;2023-02-24T16:56:59;99202.84;;;4.03;100.00
20444;BME280;10381;53.730;10.010;2023-02-24T17:01:00;99203.13;;;4.00;100.00
20444;BME280;10381;53.730;10.010;2023-02-24T17:05:03;99196.38;;;4.08;100.00
20444;BME280;10381;53.730;10.010;2023-02-24T17:09:04;99191.13;;;3.98;100.00
20444;BME280;10381;53.730;10.010;2023-02-24T17:13:09;99172.50;;;4.01;100.00
20444;BME280;10381;53.730;10.010;2023-02-24T17:17:10;99176.53;;;4.15;100.00
20444;BME280;10381;53.730;10.010;2023-02-24T17:21:14;99163.75;;;4.21;100.00
20444;BME280;10381;53.730;10.010;2023-02-24T17:25:19;99171.00;;;4.08;100.00
20444;BME280;10381;53.730;10.010;2023-02-24T17:29:19;99187.63;;;3.88;100.00
20444;BME280;10381;53.730;10.010;2023-02-24T17:33:20;99182.09;;;3.81;100.00
20444;BME280;10381;53.730;10.010;2023-02-24T17:37:20;99188.00;;;3.73;100.00
20444;BME280;10381;53.730;10.010;2023-02-24T17:41:21;99185.56;;;3.60;100.00
20444;BME280;10381;53.730;10.010;2023-02-24T17:45:22;99194.66;;;3.56;100.00
20444;BME280;10381;53.730;10.010;2023-02-24T17:49:22;99183.94;;;3.38;100.00
20444;BME280;10381;53.730;10.010;2023-02-24T17:53:22;99185.41;;;3.31;100.00
20444;BME280;10381;53.730;10.010;2023-02-24T17:57:23;99185.09;;;3.25;100.00
20444;BME280;10381;53.730;10.010;2023-02-24T18:01:24;99191.41;;;3.22;100.00
20444;BME280;10381;53.730;10.010;2023-02-24T18:05:25;99194.81;;;3.13;100.00
20444;BME280;10381;53.730;10.010;2023-02-24T18:09:25;99206.22;;;3.12;100.00
20444;BME280;10381;53.730;10.010;2023-02-24T18:13:27;99203.13;;;3.18;100.00
20444;BME280;10381;53.730;10.010;2023-02-24T18:17:28;99201.66;;;3.25;100.00
20444;BME280;10381;53.730;10.010;2023-02-24T18:21:29;99204.31;;;3.14;100.00
20444;BME280;10381;53.730;10.010;2023-02-24T18:25:29;99208.13;;;3.10;100.00
20444;BME280;10381;53.730;10.010;2023-02-24T18:29:29;99204.06;;;3.17;100.00
20444;BME280;10381;53.730;10.010;2023-02-24T18:33:29;99210.19;;;3.27;100.00
20444;BME280;10381;53.730;10.010;2023-02-24T18:37:30;99218.50;;;3.32;100.00
20444;BME280;10381;53.730;10.010;2023-02-24T18:41:30;99212.47;;;3.41;100.00
20444;BME280;10381;53.730;10.010;2023-02-24T18:45:30;99207.00;;;3.45;100.00
20444;BME280;10381;53.730;10.010;2023-02-24T18:49:31;99202.53;;;3.35;100.00
20444;BME280;10381;53.730;10.010;2023-02-24T18:53:33;99205.53;;;3.31;100.00
20444;BME280;10381;53.730;10.010;2023-02-24T18:57:36;99200.19;;;3.32;100.00
20444;BME280;10381;53.730;10.010;2023-02-24T19:01:37;99211.41;;;3.44;100.00
20444;BME280;10381;53.730;10.010;2023-02-24T19:05:38;99206.03;;;3.46;100.00
20444;BME280;10381;53.730;10.010;2023-02-24T19:09:38;99199.69;;;3.48;100.00
20444;BME280;10381;53.730;10.010;2023-02-24T19:13:39;99194.63;;;3.47;100.00
20444;BME280;10381;53.730;10.010;2023-02-24T19:17:39;99197.09;;;3.48;100.00
20444;BME280;10381;53.730;10.010;2023-02-24T19:21:40;99202.84;;;3.42;100.00
20444;BME280;10381;53.730;10.010;2023-02-24T19:25:41;99201.16;;;3.41;100.00
20444;BME280;10381;53.730;10.010;2023-02-24T19:29:41;99208.09;;;3.42;100.00
20444;BME280;10381;53.730;10.010;2023-02-24T19:33:42;99199.78;;;3.37;100.00
20444;BME280;10381;53.730;10.010;2023-02-24T19:37:42;99197.22;;;3.26;100.00
20444;BME280;10381;53.730;10.010;2023-02-24T19:41:42;99198.31;;;3.23;100.00
20444;BME280;10381;53.730;10.010;2023-02-24T19:45:43;99210.88;;;3.29;100.00
20444;BME280;10381;53.730;10.010;2023-02-24T19:49:44;99209.41;;;3.36;100.00
20444;BME280;10381;53.730;10.010;2023-02-24T19:53:44;99211.78;;;3.39;100.00
20444;BME280;10381;53.730;10.010;2023-02-24T19:57:45;99210.31;;;3.47;100.00
20444;BME280;10381;53.730;10.010;2023-02-24T20:01:45;99208.13;;;3.52;100.00
20444;BME280;10381;53.730;10.010;2023-02-24T20:05:45;99215.03;;;3.53;100.00
20444;BME280;10381;53.730;10.010;2023-02-24T20:09:47;99209.09;;;3.51;100.00
20444;BME280;10381;53.730;10.010;2023-02-24T20:13:50;99204.69;;;3.51;100.00
20444;BME280;10381;53.730;10.010;2023-02-24T20:17:50;99201.75;;;3.45;100.00
20444;BME280;10381;53.730;10.010;2023-02-24T20:21:50;99208.09;;;3.42;100.00
20444;BME280;10381;53.730;10.010;2023-02-24T20:25:52;99213.88;;;3.46;100.00
20444;BME280;10381;53.730;10.010;2023-02-24T20:29:54;99217.16;;;3.38;100.00
20444;BME280;10381;53.730;10.010;2023-02-24T20:33:55;99220.97;;;3.34;100.00
20444;BME280;10381;53.730;10.010;2023-02-24T20:37:55;99222.31;;;3.28;100.00
20444;BME280;10381;53.730;10.010;2023-02-24T20:41:56;99216.50;;;3.46;100.00
20444;BME280;10381;53.730;10.010;2023-02-24T20:45:56;99228.19;;;3.41;100.00
20444;BME280;10381;53.730;10.010;2023-02-24T20:49:56;99221.47;;;3.49;100.00
20444;BME280;10381;53.730;10.010;2023-02-24T20:53:58;99231.72;;;3.52;100.00
20444;BME280;10381;53.730;10.010;2023-02-24T20:57:58;99223.09;;;3.61;100.00
20444;BME280;10381;53.730;10.010;2023-02-24T21:01:59;99223.97;;;3.71;100.00
20444;BME280;10381;53.730;10.010;2023-02-24T21:05:59;99222.97;;;3.72;100.00
20444;BME280;10381;53.730;10.010;2023-02-24T21:09:59;99220.38;;;3.72;100.00
20444;BME280;10381;53.730;10.010;2023-02-24T21:13:59;99243.00;;;3.73;100.00
20444;BME280;10381;53.730;10.010;2023-02-24T21:18:00;99230.59;;;3.75;100.00
20444;BME280;10381;53.730;10.010;2023-02-24T21:22:00;99237.88;;;3.72;100.00
20444;BME280;10381;53.730;10.010;2023-02-24T21:26:01;99250.25;;;3.70;100.00
20444;BME280;10381;53.730;10.010;2023-02-24T21:30:04;99257.56;;;3.66;100.00
20444;BME280;10381;53.730;10.010;2023-02-24T21:34:04;99284.25;;;3.60;100.00
20444;BME280;10381;53.730;10.010;2023-02-24T21:38:05;99263.13;;;3.52;100.00
20444;BME280;10381;53.730;10.010;2023-02-24T21:42:05;99262.41;;;3.50;100.00
20444;BME280;10381;53.730;10.010;2023-02-24T21:46:06;99276.38;;;3.39;100.00
20444;BME280;10381;53.730;10.010;2023-02-24T21:50:10;99276.84;;;3.23;100.00
20444;BME280;10381;53.730;10.010;2023-02-24T21:54:11;99269.72;;;3.14;100.00
20444;BME280;10381;53.730;10.010;2023-02-24T21:58:11;99280.00;;;3.06;100.00